Time;durP1;ratioP1;P1;durP2;ratioP2;P2;SDS_P1;SDS_P2;PMS_P1;PMS_P2;Temp;Humidity;BMP_temperature;BMP_pressure;BME280_temperature;BME280_humidity;BME280_pressure;Samples;Min_cycle;Max_cycle;Signal;HPM_P1;HPM_P2
2023/06/08 00:00:39;;;;;;;12.90;11.70;;;14.50;1.00;;;;;;8276834;28;20265;-67
2023/06/08 00:04:41;;;;;;;12.37;11.17;;;14.50;99.90;;;;;;8274379;28;20302;-69
2023/06/08 00:08:43;;;;;;;13.17;11.53;;;14.50;99.90;;;;;;8285992;28;20183;-68
2023/06/08 00:12:44;;;;;;;12.03;10.80;;;14.50;84.60;;;;;;8256270;28;20188;-70
2023/06/08 00:16:48;;;;;;;10.83;9.73;;;14.40;99.90;;;;;;8273241;28;20194;-69
2023/06/08 00:20:51;;;;;;;11.43;10.33;;;14.40;99.90;;;;;;8256941;28;20241;-68
2023/06/08 00:24:52;;;;;;;10.80;9.80;;;14.40;99.90;;;;;;8257525;28;20215;-67
2023/06/08 00:28:53;;;;;;;11.23;10.13;;;14.40;99.90;;;;;;8260085;28;20183;-68
2023/06/08 00:32:55;;;;;;;10.73;9.63;;;14.30;99.90;;;;;;8269523;28;20183;-67
2023/06/08 00:36:56;;;;;;;11.87;10.67;;;14.30;99.90;;;;;;8271281;28;20250;-67
2023/06/08 00:41:01;;;;;;;12.30;10.03;;;14.40;99.90;;;;;;8269567;28;20238;-68
2023/06/08 00:45:02;;;;;;;11.20;10.00;;;14.40;99.90;;;;;;8268837;28;20304;-66
2023/06/08 00:49:05;;;;;;;10.60;9.60;;;14.40;99.90;;;;;;8286475;28;20178;-67
2023/06/08 00:53:06;;;;;;;10.93;9.83;;;14.40;99.90;;;;;;8269308;28;20299;-67
2023/06/08 00:57:09;;;;;;;11.50;10.30;;;14.30;99.90;;;;;;8258078;28;20192;-69
2023/06/08 01:01:12;;;;;;;10.33;9.37;;;14.30;99.90;;;;;;8275618;28;20179;-67
2023/06/08 01:05:16;;;;;;;10.93;9.93;;;14.20;99.90;;;;;;8254296;28;20215;-67
2023/06/08 01:10:00;;;;;;;10.47;9.47;;;14.20;99.90;;;;;;8259546;28;20215;-67
2023/06/08 01:14:13;;;;;;;10.47;9.43;;;14.20;99.90;;;;;;8195429;28;20190;-68
2023/06/08 01:18:17;;;;;;;10.80;9.80;;;14.10;99.90;;;;;;8225469;28;20210;-69
2023/06/08 01:22:38;;;;;;;12.30;11.13;;;14.10;99.90;;;;;;8270480;28;20218;-67
2023/06/08 01:26:41;;;;;;;12.10;10.90;;;14.00;99.90;;;;;;8268463;28;20215;-68
2023/06/08 01:30:45;;;;;;;13.30;12.00;;;14.00;99.90;;;;;;8259381;28;20194;-68
2023/06/08 01:34:50;;;;;;;11.60;10.60;;;14.10;99.90;;;;;;8267277;28;20198;-68
2023/06/08 01:39:06;;;;;;;10.57;9.43;;;14.10;99.90;;;;;;8286969;28;20217;-68
2023/06/08 01:43:09;;;;;;;11.53;10.43;;;14.00;99.90;;;;;;8256244;28;20198;-68
2023/06/08 01:47:14;;;;;;;10.90;9.90;;;14.00;99.90;;;;;;8269849;28;20215;-68
2023/06/08 01:51:17;;;;;;;11.30;10.10;;;13.90;99.90;;;;;;8266074;28;20218;-68
2023/06/08 01:55:19;;;;;;;11.93;10.77;;;13.90;99.90;;;;;;8254160;28;20276;-67
2023/06/08 01:59:20;;;;;;;15.03;12.33;;;13.90;99.90;;;;;;8266706;28;20212;-66
2023/06/08 02:03:21;;;;;;;13.63;12.23;;;13.90;99.90;;;;;;8256806;28;20273;-67
2023/06/08 02:07:22;;;;;;;12.67;11.47;;;13.90;99.90;;;;;;8267462;28;20211;-66
2023/06/08 02:11:23;;;;;;;13.90;12.37;;;13.80;99.90;;;;;;8280527;28;20184;-67
2023/06/08 02:15:28;;;;;;;13.37;11.97;;;13.70;99.90;;;;;;8264972;28;20185;-68
2023/06/08 02:19:30;;;;;;;12.47;11.27;;;13.70;99.90;;;;;;8263719;28;20263;-68
2023/06/08 02:23:31;;;;;;;11.50;10.50;;;13.60;99.90;;;;;;8257096;28;20192;-68
2023/06/08 02:27:36;;;;;;;12.73;11.53;;;13.50;99.90;;;;;;8263729;28;20219;-67
2023/06/08 02:31:37;;;;;;;11.33;10.40;;;13.40;99.90;;;;;;8257163;28;20222;-68
2023/06/08 02:35:38;;;;;;;10.77;9.70;;;13.30;99.90;;;;;;8269545;28;20233;-68
2023/06/08 02:39:39;;;;;;;10.37;9.47;;;13.20;99.90;;;;;;8284377;28;20200;-66
2023/06/08 02:43:40;;;;;;;11.10;10.10;;;13.10;99.90;;;;;;8268964;28;20282;-66
2023/06/08 02:47:42;;;;;;;10.23;9.33;;;13.00;99.90;;;;;;8266661;28;20268;-67
2023/06/08 02:51:53;;;;;;;10.57;9.60;;;12.90;99.90;;;;;;8266690;28;20274;-67
2023/06/08 02:55:54;;;;;;;10.07;9.17;;;12.80;99.90;;;;;;8247276;28;20190;-67
2023/06/08 02:59:55;;;;;;;11.33;10.33;;;12.70;99.90;;;;;;8265240;28;20191;-69
2023/06/08 03:03:56;;;;;;;11.40;10.40;;;12.70;99.90;;;;;;8280855;28;20216;-68
2023/06/08 03:07:58;;;;;;;12.57;11.47;;;12.80;99.90;;;;;;8269285;28;20291;-70
2023/06/08 03:12:00;;;;;;;13.47;12.23;;;12.90;99.90;;;;;;8253679;28;20183;-69
2023/06/08 03:16:01;;;;;;;13.30;12.00;;;13.10;99.90;;;;;;8254678;28;20188;-70
2023/06/08 03:20:03;;;;;;;12.43;11.30;;;13.40;99.90;;;;;;8253464;28;20302;-69
2023/06/08 03:24:04;;;;;;;14.00;12.70;;;13.70;99.90;;;;;;8263858;28;20214;-69
2023/06/08 03:28:05;;;;;;;11.07;10.07;;;14.10;99.90;;;;;;8254596;28;20263;-70
2023/06/08 03:32:07;;;;;;;9.50;8.70;;;14.70;99.90;;;;;;8255907;28;20281;-70
2023/06/08 03:36:08;;;;;;;9.53;8.53;;;15.30;99.90;;;;;;8271982;28;20195;-69
2023/06/08 03:40:09;;;;;;;7.17;6.57;;;15.60;99.90;;;;;;8288384;28;20207;-70
2023/06/08 03:44:10;;;;;;;9.20;8.40;;;16.00;99.90;;;;;;8255322;28;20241;-73
2023/06/08 03:48:11;;;;;;;8.23;7.30;;;16.50;99.90;;;;;;8269450;28;20230;-70
2023/06/08 03:52:12;;;;;;;7.77;7.07;;;16.90;99.90;;;;;;8286746;28;20230;-70
2023/06/08 03:56:14;;;;;;;7.07;6.37;;;17.10;99.90;;;;;;8256178;28;20274;-70
2023/06/08 04:00:15;;;;;;;6.33;5.73;;;17.30;38.50;;;;;;8274584;28;20188;-70
2023/06/08 04:04:18;;;;;;;6.00;5.50;;;17.30;1.00;;;;;;8258710;28;20218;-69
2023/06/08 04:08:19;;;;;;;6.33;5.70;;;17.60;1.00;;;;;;8271328;28;20187;-70
2023/06/08 04:12:20;;;;;;;5.93;5.43;;;18.20;1.00;;;;;;8265803;28;20198;-70
2023/06/08 04:16:22;;;;;;;6.67;6.10;;;18.80;1.00;;;;;;8259176;28;20191;-73
2023/06/08 04:20:23;;;;;;;6.60;6.03;;;19.50;1.00;;;;;;8287231;28;20258;-71
2023/06/08 04:24:24;;;;;;;9.33;6.70;;;20.10;1.00;;;;;;8260583;28;20219;-71
2023/06/08 04:28:25;;;;;;;6.33;5.73;;;20.80;1.00;;;;;;8269572;28;20192;-71
2023/06/08 04:32:27;;;;;;;6.87;6.17;;;21.40;1.00;;;;;;8272730;28;20199;-71
2023/06/08 04:36:31;;;;;;;7.90;6.43;;;22.00;1.00;;;;;;8252263;28;20194;-71
2023/06/08 04:40:33;;;;;;;7.10;6.40;;;22.30;1.00;;;;;;8251513;28;20191;-71
2023/06/08 04:44:34;;;;;;;9.93;6.63;;;22.20;1.00;;;;;;8269274;28;20294;-71
2023/06/08 04:48:37;;;;;;;8.67;7.33;;;22.20;1.00;;;;;;8272914;28;20187;-76
2023/06/08 04:52:41;;;;;;;7.60;6.90;;;22.20;1.00;;;;;;8251209;28;20191;-72
2023/06/08 04:56:42;;;;;;;6.93;6.10;;;22.10;1.00;;;;;;8269642;28;20188;-75
2023/06/08 05:00:43;;;;;;;6.67;5.93;;;22.30;1.00;;;;;;8258105;28;20188;-72
2023/06/08 05:04:44;;;;;;;7.10;6.40;;;22.60;1.00;;;;;;8251525;28;20223;-71
2023/06/08 05:08:45;;;;;;;8.47;7.57;;;22.70;1.00;;;;;;8272352;28;20195;-71
2023/06/08 05:12:46;;;;;;;7.70;7.00;;;22.20;1.00;;;;;;8258263;28;20182;-70
2023/06/08 05:16:47;;;;;;;7.17;6.47;;;21.90;1.00;;;;;;8269686;28;20195;-71
2023/06/08 05:20:48;;;;;;;7.77;6.97;;;21.50;1.00;;;;;;8254526;28;20196;-71
2023/06/08 05:24:49;;;;;;;9.57;8.43;;;21.30;1.00;;;;;;8259349;28;20218;-71
2023/06/08 05:28:51;;;;;;;9.47;8.57;;;21.10;1.00;;;;;;8253338;28;20187;-72
2023/06/08 05:32:52;;;;;;;8.13;7.43;;;21.00;1.00;;;;;;8253518;28;20277;-75
2023/06/08 05:36:58;;;;;;;8.03;7.33;;;21.00;1.00;;;;;;8256168;28;20191;-72
2023/06/08 05:40:59;;;;;;;9.43;8.43;;;21.00;1.00;;;;;;8257402;28;20200;-73
2023/06/08 05:45:00;;;;;;;8.77;8.00;;;21.10;1.00;;;;;;8256934;28;20253;-72
2023/06/08 05:49:02;;;;;;;8.20;7.43;;;21.20;1.00;;;;;;8265197;28;20232;-72
2023/06/08 05:53:03;;;;;;;10.43;7.37;;;21.30;1.00;;;;;;8258569;28;20188;-72
2023/06/08 05:57:05;;;;;;;8.90;8.03;;;21.40;1.00;;;;;;8257176;28;20188;-70
2023/06/08 06:01:09;;;;;;;9.10;8.30;;;21.40;1.00;;;;;;8252747;28;20192;-73
2023/06/08 06:05:11;;;;;;;8.30;7.60;;;21.50;1.00;;;;;;8253684;28;20222;-71
2023/06/08 06:09:12;;;;;;;7.70;7.00;;;21.70;1.00;;;;;;8255447;28;20187;-71
2023/06/08 06:13:16;;;;;;;9.40;8.47;;;21.90;1.00;;;;;;8254885;28;20223;-73
2023/06/08 06:17:17;;;;;;;8.97;8.17;;;22.00;1.00;;;;;;8255140;28;20245;-74
2023/06/08 06:21:19;;;;;;;9.40;7.60;;;22.10;1.00;;;;;;8254020;28;20195;-72
2023/06/08 06:25:21;;;;;;;9.83;8.93;;;22.30;1.00;;;;;;8256113;28;20334;-76
2023/06/08 06:29:24;;;;;;;7.33;6.67;;;22.50;1.00;;;;;;8253714;28;20175;-74
2023/06/08 06:33:25;;;;;;;9.03;7.13;;;22.60;1.00;;;;;;8252813;28;20191;-72
2023/06/08 06:37:34;;;;;;;10.13;6.87;;;22.70;1.00;;;;;;8249807;28;20186;-71
2023/06/08 06:41:35;;;;;;;9.30;7.17;;;22.90;1.00;;;;;;8251618;28;20199;-71
2023/06/08 06:45:37;;;;;;;7.97;7.03;;;23.00;1.00;;;;;;8245845;28;20215;-71
2023/06/08 06:49:38;;;;;;;8.73;7.93;;;23.10;1.00;;;;;;8282129;28;20265;-73
2023/06/08 06:53:40;;;;;;;7.80;7.00;;;23.20;1.00;;;;;;8270359;28;20246;-73
2023/06/08 06:57:41;;;;;;;6.80;6.20;;;23.30;1.00;;;;;;8266228;28;20192;-74
2023/06/08 07:01:42;;;;;;;7.67;6.97;;;23.50;1.00;;;;;;8256897;28;20196;-70
2023/06/08 07:05:45;;;;;;;7.93;7.23;;;23.60;99.90;;;;;;8257756;28;20231;-72
2023/06/08 07:09:45;;;;;;;9.47;6.60;;;23.60;99.90;;;;;;8259307;28;20241;-70
2023/06/08 07:13:46;;;;;;;7.50;6.70;;;23.70;99.90;;;;;;8287559;28;20184;-72
2023/06/08 07:17:47;;;;;;;14.83;7.53;;;23.70;99.90;;;;;;8260265;28;20180;-73
2023/06/08 07:21:51;;;;;;;8.13;6.93;;;23.80;99.90;;;;;;8264484;28;20195;-71
2023/06/08 07:25:52;;;;;;;8.00;7.20;;;23.90;99.90;;;;;;8262936;28;20246;-70
2023/06/08 07:29:55;;;;;;;7.53;6.63;;;24.10;99.90;;;;;;8262337;28;20191;-73
2023/06/08 07:34:02;;;;;;;7.17;6.47;;;24.30;99.90;;;;;;8261201;28;20281;-72
2023/06/08 07:38:14;;;;;;;6.77;6.17;;;24.40;99.90;;;;;;8262611;28;20182;-71
2023/06/08 07:42:15;;;;;;;6.93;6.20;;;24.50;99.90;;;;;;8260677;28;20282;-70
2023/06/08 07:46:16;;;;;;;8.63;6.38;;;24.80;99.90;;;;;;8291410;28;20291;-74
2023/06/08 07:50:18;;;;;;;6.80;5.28;;;24.90;99.90;;;;;;8272151;28;20188;-70
2023/06/08 07:54:22;;;;;;;6.80;6.20;;;25.00;99.90;;;;;;8292280;28;20194;-71
2023/06/08 07:58:23;;;;;;;8.43;6.30;;;25.30;99.90;;;;;;8255291;28;20223;-71
2023/06/08 08:02:25;;;;;;;6.85;5.80;;;25.40;99.90;;;;;;8270226;28;20191;-74
2023/06/08 08:06:26;;;;;;;6.95;6.32;;;25.60;99.90;;;;;;8261633;28;20340;-73
2023/06/08 08:10:27;;;;;;;8.60;5.68;;;25.80;99.90;;;;;;8270123;28;20301;-71
2023/06/08 08:14:28;;;;;;;8.93;5.75;;;25.80;99.90;;;;;;8254829;28;20191;-69
2023/06/08 08:18:29;;;;;;;7.45;6.20;;;25.80;99.90;;;;;;8272286;28;20277;-72
2023/06/08 08:22:32;;;;;;;5.85;5.35;;;25.80;99.90;;;;;;8267206;28;20187;-71
2023/06/08 08:26:34;;;;;;;6.10;5.50;;;25.70;99.90;;;;;;8260848;28;20219;-73
2023/06/08 08:30:35;;;;;;;6.53;5.93;;;25.60;99.90;;;;;;8274518;28;20188;-74
2023/06/08 08:34:36;;;;;;;6.28;5.65;;;25.60;99.90;;;;;;8260497;28;20194;-74
2023/06/08 08:38:40;;;;;;;9.02;6.03;;;25.80;99.90;;;;;;8255437;28;20226;-74
2023/06/08 08:43:12;;;;;;;7.45;5.30;;;25.90;99.90;;;;;;8260644;28;20194;-69
2023/06/08 08:47:14;;;;;;;5.13;4.63;;;26.00;99.90;;;;;;8258059;28;20231;-76
2023/06/08 08:51:19;;;;;;;5.90;5.28;;;26.30;99.90;;;;;;8263553;28;20207;-74
2023/06/08 08:55:27;;;;;;;5.40;4.90;;;26.60;99.90;;;;;;8261421;28;20187;-73
2023/06/08 08:59:28;;;;;;;5.00;4.55;;;26.80;99.90;;;;;;8267533;28;20195;-74
2023/06/08 09:03:30;;;;;;;5.75;5.18;;;26.90;99.90;;;;;;8206420;28;1805816;-75
2023/06/08 09:07:32;;;;;;;5.95;5.35;;;27.10;99.90;;;;;;8251727;28;20212;-76
2023/06/08 09:11:34;;;;;;;8.02;4.80;;;27.70;99.90;;;;;;8279368;28;20175;-72
2023/06/08 09:15:39;;;;;;;5.47;4.82;;;27.80;99.90;;;;;;8274611;28;20253;-72
2023/06/08 09:19:52;;;;;;;5.57;4.32;;;27.90;99.90;;;;;;8268076;28;20260;-73
2023/06/08 09:24:16;;;;;;;5.85;5.32;;;28.00;99.90;;;;;;8286769;28;20271;-72
2023/06/08 09:28:32;;;;;;;5.43;4.93;;;27.90;99.90;;;;;;8253316;28;20304;-73
2023/06/08 09:32:33;;;;;;;5.35;4.25;;;27.80;99.90;;;;;;8262945;28;20190;-73
2023/06/08 09:36:48;;;;;;;5.80;3.78;;;27.70;99.90;;;;;;8276875;28;20198;-72
2023/06/08 09:40:50;;;;;;;5.75;4.45;;;27.60;99.90;;;;;;8262550;28;20207;-73
2023/06/08 09:45:13;;;;;;;7.07;4.60;;;27.40;99.90;;;;;;8289978;28;20223;-75
2023/06/08 09:49:18;;;;;;;4.93;4.43;;;27.60;99.90;;;;;;8263988;28;20242;-72
2023/06/08 09:53:19;;;;;;;4.78;4.28;;;27.70;99.90;;;;;;8259706;28;20214;-71
2023/06/08 09:57:22;;;;;;;4.90;4.38;;;27.80;99.90;;;;;;8266560;28;20222;-71
2023/06/08 10:01:40;;;;;;;4.60;4.07;;;27.90;99.90;;;;;;8258871;28;20252;-75
2023/06/08 10:05:46;;;;;;;6.03;4.07;;;28.60;99.90;;;;;;8273382;28;20216;-71
2023/06/08 10:09:49;;;;;;;4.07;3.78;;;29.00;99.90;;;;;;8275445;28;20238;-74
2023/06/08 10:13:51;;;;;;;4.05;3.65;;;29.10;99.90;;;;;;8263434;28;20283;-74
2023/06/08 10:17:53;;;;;;;8.13;4.05;;;29.20;99.90;;;;;;8261891;28;20192;-75
2023/06/08 10:21:59;;;;;;;4.80;4.10;;;29.20;99.90;;;;;;8275168;28;20192;-74
2023/06/08 10:26:01;;;;;;;4.55;4.07;;;29.30;99.90;;;;;;8261278;28;20211;-72
2023/06/08 10:30:05;;;;;;;3.83;3.53;;;29.10;99.90;;;;;;8271813;28;20307;-73
2023/06/08 10:34:11;;;;;;;5.53;4.28;;;29.00;99.90;;;;;;8264006;28;20188;-72
2023/06/08 10:38:19;;;;;;;3.85;3.22;;;29.00;99.90;;;;;;8256977;28;20191;-75
2023/06/08 10:42:21;;;;;;;4.43;3.58;;;29.30;99.90;;;;;;8261769;28;20187;-72
2023/06/08 10:46:40;;;;;;;3.70;3.40;;;29.80;99.90;;;;;;8270044;28;20210;-72
2023/06/08 10:50:44;;;;;;;7.45;3.70;;;30.20;99.90;;;;;;8264361;28;20195;-73
2023/06/08 10:54:59;;;;;;;4.07;3.58;;;30.30;99.90;;;;;;8293202;28;20211;-71
2023/06/08 10:59:01;;;;;;;6.75;4.13;;;30.20;99.90;;;;;;8260658;28;20203;-73
2023/06/08 11:03:06;;;;;;;4.30;3.75;;;30.30;99.90;;;;;;8255978;28;20226;-70
2023/06/08 11:07:07;;;;;;;5.03;4.38;;;30.70;99.90;;;;;;8288906;28;20302;-71
2023/06/08 11:11:13;;;;;;;4.13;3.83;;;30.60;99.90;;;;;;8273417;28;20182;-74
2023/06/08 11:15:18;;;;;;;4.30;3.90;;;30.80;99.90;;;;;;8262516;28;20218;-73
2023/06/08 11:19:20;;;;;;;4.45;3.53;;;31.20;99.90;;;;;;8271180;28;20194;-70
2023/06/08 11:23:21;;;;;;;4.30;3.92;;;31.20;99.90;;;;;;8259599;28;20192;-74
2023/06/08 11:27:22;;;;;;;5.22;4.57;;;31.10;99.90;;;;;;8258712;28;20207;-72
2023/06/08 11:31:23;;;;;;;6.07;4.00;;;30.90;99.90;;;;;;8257017;28;20194;-73
2023/06/08 11:35:25;;;;;;;4.95;4.47;;;30.80;99.90;;;;;;8270119;28;20195;-71
2023/06/08 11:39:32;;;;;;;6.18;3.70;;;30.90;99.90;;;;;;8260176;28;20184;-72
2023/06/08 11:43:33;;;;;;;7.93;3.78;;;30.60;99.90;;;;;;8254267;28;20192;-72
2023/06/08 11:47:37;;;;;;;4.57;3.47;;;30.40;99.90;;;;;;8250393;28;20318;-73
2023/06/08 11:51:47;;;;;;;5.88;3.97;;;30.20;99.90;;;;;;8268838;28;20217;-74
2023/06/08 11:55:54;;;;;;;6.55;3.78;;;30.40;99.90;;;;;;8261489;28;20282;-69
2023/06/08 11:59:55;;;;;;;5.75;4.25;;;30.50;99.90;;;;;;8277349;28;20275;-74
2023/06/08 12:03:56;;;;;;;4.30;3.40;;;30.70;99.90;;;;;;8275659;28;20233;-73
2023/06/08 12:08:14;;;;;;;4.38;3.95;;;30.60;99.90;;;;;;8275380;28;20330;-75
2023/06/08 12:12:15;;;;;;;6.28;3.70;;;30.70;99.90;;;;;;8280348;28;20180;-70
2023/06/08 12:16:16;;;;;;;4.28;3.88;;;30.60;99.90;;;;;;8262040;28;20183;-73
2023/06/08 12:20:17;;;;;;;5.82;3.90;;;30.70;99.90;;;;;;8272418;28;20287;-73
2023/06/08 12:24:18;;;;;;;5.47;3.90;;;31.00;99.90;;;;;;8272402;28;20214;-66
2023/06/08 12:28:24;;;;;;;4.47;4.00;;;30.80;99.90;;;;;;8287260;28;20202;-66
2023/06/08 12:32:31;;;;;;;6.38;3.72;;;30.70;99.90;;;;;;8270847;28;20194;-67
2023/06/08 12:36:35;;;;;;;7.78;4.07;;;30.60;99.90;;;;;;8272236;28;20187;-70
2023/06/08 12:40:36;;;;;;;5.55;4.07;;;30.10;99.90;;;;;;8271912;28;20191;-69
2023/06/08 12:44:37;;;;;;;7.65;3.92;;;29.70;99.90;;;;;;8284940;28;20288;-66
2023/06/08 12:48:38;;;;;;;6.47;4.10;;;29.80;99.90;;;;;;8253904;28;20188;-72
2023/06/08 12:52:39;;;;;;;6.50;4.38;;;30.00;99.90;;;;;;8258655;28;20198;-68
2023/06/08 12:56:40;;;;;;;5.50;3.95;;;29.80;99.90;;;;;;8248178;28;20212;-68
2023/06/08 13:00:41;;;;;;;5.00;3.88;;;29.70;99.90;;;;;;8259837;28;20200;-67
2023/06/08 13:04:42;;;;;;;5.95;4.00;;;29.20;99.90;;;;;;8284075;28;20223;-65
2023/06/08 13:08:43;;;;;;;6.38;4.10;;;28.60;99.90;;;;;;8285371;28;20192;-67
2023/06/08 13:12:45;;;;;;;4.90;3.75;;;28.00;99.90;;;;;;8268229;28;20188;-68
2023/06/08 13:16:46;;;;;;;4.53;3.35;;;27.80;99.90;;;;;;8268980;28;20286;-66
2023/06/08 13:20:48;;;;;;;5.38;4.07;;;27.60;99.90;;;;;;8253332;28;20186;-65
2023/06/08 13:24:49;;;;;;;6.07;3.83;;;27.50;99.90;;;;;;8271062;28;20214;-66
2023/06/08 13:28:53;;;;;;;4.57;4.05;;;27.70;99.90;;;;;;8254797;28;20240;-67
2023/06/08 13:32:54;;;;;;;7.70;4.10;;;28.40;99.90;;;;;;8267857;28;20215;-66
2023/06/08 13:36:55;;;;;;;4.60;4.20;;;28.80;99.90;;;;;;8250426;28;20192;-67
2023/06/08 13:40:56;;;;;;;5.72;3.92;;;29.30;99.90;;;;;;8254831;28;20192;-68
2023/06/08 13:44:57;;;;;;;5.22;3.60;;;29.50;99.90;;;;;;8253140;28;20213;-66
2023/06/08 13:48:58;;;;;;;4.78;3.55;;;29.60;99.90;;;;;;8267998;28;20237;-71
2023/06/08 13:53:00;;;;;;;4.70;3.38;;;29.70;99.90;;;;;;8257368;28;20299;-68
2023/06/08 13:57:04;;;;;;;5.03;3.25;;;29.70;99.90;;;;;;8268372;28;20271;-67
2023/06/08 14:01:05;;;;;;;5.97;3.90;;;29.60;99.90;;;;;;8257728;28;20203;-68
2023/06/08 14:05:07;;;;;;;5.18;3.47;;;29.70;99.90;;;;;;8263909;28;20220;-69
2023/06/08 14:09:09;;;;;;;5.13;3.45;;;29.70;99.90;;;;;;8252317;28;20207;-68
2023/06/08 14:13:10;;;;;;;5.88;3.85;;;29.80;99.90;;;;;;8262996;28;20183;-66
2023/06/08 14:17:11;;;;;;;3.78;3.38;;;29.80;99.90;;;;;;8269666;28;20210;-67
2023/06/08 14:21:12;;;;;;;4.75;3.88;;;30.00;99.90;;;;;;8265609;28;20184;-67
2023/06/08 14:25:15;;;;;;;6.03;3.70;;;29.90;99.90;;;;;;8268849;28;20269;-67
2023/06/08 14:29:16;;;;;;;6.45;3.58;;;29.70;99.90;;;;;;8256053;28;20214;-68
2023/06/08 14:33:17;;;;;;;5.38;3.85;;;29.70;99.90;;;;;;8254788;28;20190;-67
2023/06/08 14:37:18;;;;;;;4.35;3.72;;;29.70;99.90;;;;;;8254740;28;20180;-66
2023/06/08 14:41:22;;;;;;;6.10;4.05;;;29.60;99.90;;;;;;8285088;28;20188;-67
2023/06/08 14:45:23;;;;;;;5.20;3.92;;;29.50;99.90;;;;;;8253508;28;20273;-68
2023/06/08 14:49:27;;;;;;;4.20;3.80;;;29.50;99.90;;;;;;8266530;28;20237;-69
2023/06/08 14:53:29;;;;;;;4.65;4.25;;;29.50;99.90;;;;;;8256080;28;20184;-66
2023/06/08 14:57:30;;;;;;;5.20;3.80;;;29.40;99.90;;;;;;8263479;28;20248;-69
2023/06/08 15:01:37;;;;;;;4.15;3.70;;;29.30;99.90;;;;;;8280480;28;20202;-67
2023/06/08 15:05:40;;;;;;;4.75;3.72;;;29.20;99.90;;;;;;8269875;28;20291;-67
2023/06/08 15:09:41;;;;;;;4.65;3.88;;;29.10;99.90;;;;;;8254304;28;20221;-66
2023/06/08 15:13:45;;;;;;;5.95;4.13;;;29.30;99.90;;;;;;8265811;28;20184;-70
2023/06/08 15:17:46;;;;;;;4.53;3.90;;;29.60;99.90;;;;;;8254174;28;20227;-70
2023/06/08 15:21:47;;;;;;;5.47;4.03;;;29.70;99.90;;;;;;8250864;28;20191;-67
2023/06/08 15:25:48;;;;;;;4.35;3.30;;;29.60;99.90;;;;;;8257288;28;20215;-66
2023/06/08 15:29:49;;;;;;;4.10;3.70;;;29.40;99.90;;;;;;8287797;28;20202;-67
2023/06/08 15:33:50;;;;;;;4.45;3.55;;;29.40;99.90;;;;;;8269898;28;20191;-67
2023/06/08 15:37:51;;;;;;;3.90;3.30;;;29.30;99.90;;;;;;8257881;28;20275;-66
2023/06/08 15:41:57;;;;;;;5.18;3.75;;;29.00;99.90;;;;;;8275794;28;20285;-70
2023/06/08 15:45:58;;;;;;;4.07;3.60;;;28.80;99.90;;;;;;8257763;28;20214;-70
2023/06/08 15:49:59;;;;;;;5.88;3.85;;;28.20;99.90;;;;;;8286810;28;20210;-68
2023/06/08 15:54:03;;;;;;;4.32;3.75;;;27.70;99.90;;;;;;8273924;28;20183;-67
2023/06/08 15:58:07;;;;;;;4.85;3.72;;;27.40;99.90;;;;;;8260470;28;20211;-67
2023/06/08 16:02:08;;;;;;;4.97;3.53;;;27.40;99.90;;;;;;8259630;28;20194;-66
2023/06/08 16:06:10;;;;;;;7.38;3.40;;;27.40;99.90;;;;;;8257697;28;20238;-66
2023/06/08 16:10:11;;;;;;;3.47;3.17;;;27.70;99.90;;;;;;8267488;28;20184;-67
2023/06/08 16:14:12;;;;;;;5.85;3.38;;;28.00;99.90;;;;;;8257243;28;20203;-67
2023/06/08 16:18:13;;;;;;;4.70;3.67;;;28.20;99.90;;;;;;8258615;28;20214;-66
2023/06/08 16:22:16;;;;;;;5.03;3.20;;;28.40;99.90;;;;;;8284297;28;20180;-65
2023/06/08 16:26:17;;;;;;;3.67;3.30;;;28.50;99.90;;;;;;8285063;28;20214;-67
2023/06/08 16:30:18;;;;;;;3.50;3.20;;;28.60;99.90;;;;;;8256289;28;20297;-66
2023/06/08 16:34:20;;;;;;;3.42;3.08;;;28.50;99.90;;;;;;8267626;28;20202;-66
2023/06/08 16:38:21;;;;;;;4.75;3.70;;;28.40;99.90;;;;;;8260238;28;20179;-66
2023/06/08 16:42:22;;;;;;;4.00;3.50;;;28.20;99.90;;;;;;8284104;28;20210;-66
2023/06/08 16:46:26;;;;;;;4.05;3.20;;;28.10;99.90;;;;;;8283726;28;20206;-66
2023/06/08 16:50:28;;;;;;;5.03;3.55;;;27.90;99.90;;;;;;8267672;28;20176;-66
2023/06/08 16:54:31;;;;;;;5.95;3.22;;;27.80;99.90;;;;;;8272255;28;20186;-65
2023/06/08 16:58:33;;;;;;;6.20;3.83;;;27.70;99.90;;;;;;8269194;28;20190;-66
2023/06/08 17:02:34;;;;;;;4.00;3.50;;;27.70;99.90;;;;;;8271166;28;20257;-68
2023/06/08 17:06:35;;;;;;;5.03;3.60;;;27.50;99.90;;;;;;8250506;28;20222;-67
2023/06/08 17:10:37;;;;;;;3.75;3.22;;;27.30;99.90;;;;;;8256984;28;20229;-67
2023/06/08 17:14:38;;;;;;;5.13;3.53;;;27.20;99.90;;;;;;8256226;28;20191;-67
2023/06/08 17:18:39;;;;;;;4.07;3.67;;;27.10;99.90;;;;;;8270763;28;20191;-66
2023/06/08 17:22:40;;;;;;;4.05;3.65;;;27.00;99.90;;;;;;8254636;28;20265;-67
2023/06/08 17:26:44;;;;;;;5.03;4.00;;;26.80;99.90;;;;;;8258573;28;20215;-65
2023/06/08 17:30:45;;;;;;;3.95;3.65;;;26.60;99.90;;;;;;8267440;28;20188;-66
2023/06/08 17:34:46;;;;;;;4.53;4.13;;;26.10;99.90;;;;;;8255750;28;20230;-66
2023/06/08 17:38:47;;;;;;;4.25;3.85;;;25.70;99.90;;;;;;8254663;28;20187;-67
2023/06/08 17:42:48;;;;;;;4.63;3.97;;;25.40;99.90;;;;;;8253881;28;20191;-66
2023/06/08 17:46:49;;;;;;;6.20;4.00;;;25.10;99.90;;;;;;8254645;28;20214;-67
2023/06/08 17:50:50;;;;;;;5.80;3.73;;;24.90;99.90;;;;;;8268425;28;20187;-66
2023/06/08 17:54:51;;;;;;;5.43;4.03;;;24.60;99.90;;;;;;8252587;28;20194;-69
2023/06/08 17:58:53;;;;;;;4.70;4.30;;;24.40;99.90;;;;;;8272247;28;20187;-67
2023/06/08 18:02:54;;;;;;;4.57;4.17;;;24.20;99.90;;;;;;8256992;28;20298;-67
2023/06/08 18:06:55;;;;;;;5.27;4.77;;;24.00;99.90;;;;;;8267836;28;20214;-66
2023/06/08 18:10:58;;;;;;;4.90;4.50;;;23.90;99.90;;;;;;8247238;28;20258;-66
2023/06/08 18:14:58;;;;;;;6.53;4.90;;;24.00;99.90;;;;;;8248507;28;20193;-66
2023/06/08 18:19:02;;;;;;;6.83;4.10;;;24.30;99.90;;;;;;8257331;28;20188;-66
2023/06/08 18:23:03;;;;;;;5.00;4.50;;;24.50;99.90;;;;;;8256642;28;20235;-67
2023/06/08 18:27:06;;;;;;;5.27;4.77;;;24.30;99.90;;;;;;8272068;28;20238;-66
2023/06/08 18:31:07;;;;;;;5.43;4.93;;;23.90;99.90;;;;;;8270751;28;20183;-65
2023/06/08 18:35:08;;;;;;;5.00;4.60;;;23.90;99.90;;;;;;8268939;28;20195;-65
2023/06/08 18:39:09;;;;;;;6.27;5.73;;;23.90;99.90;;;;;;8253998;28;20317;-65
2023/06/08 18:43:10;;;;;;;6.20;5.60;;;23.40;99.90;;;;;;8266204;28;20285;-66
2023/06/08 18:47:11;;;;;;;5.83;5.33;;;22.70;99.90;;;;;;8283327;28;20217;-65
2023/06/08 18:51:12;;;;;;;6.27;5.70;;;22.10;99.90;;;;;;8264824;28;20202;-66
2023/06/08 18:55:13;;;;;;;6.20;5.60;;;21.70;99.90;;;;;;8252040;28;20186;-65
2023/06/08 18:59:15;;;;;;;6.53;5.83;;;21.30;99.90;;;;;;8252740;28;20213;-65
2023/06/08 19:03:16;;;;;;;6.53;5.93;;;21.00;99.90;;;;;;8260940;28;20207;-65
2023/06/08 19:07:19;;;;;;;6.40;5.80;;;20.70;1.00;;;;;;8271304;28;20217;-66
2023/06/08 19:11:20;;;;;;;6.80;6.20;;;20.30;1.00;;;;;;8287872;28;20240;-66
2023/06/08 19:15:21;;;;;;;6.70;6.10;;;20.00;1.00;;;;;;8275177;28;20183;-66
2023/06/08 19:19:26;;;;;;;6.70;6.10;;;19.70;1.00;;;;;;8257074;28;20187;-66
2023/06/08 19:23:26;;;;;;;7.23;6.57;;;19.30;1.00;;;;;;8262913;28;20267;-66
2023/06/08 19:27:28;;;;;;;7.63;6.80;;;19.10;1.00;;;;;;8257385;28;20216;-65
2023/06/08 19:31:29;;;;;;;9.10;7.93;;;18.80;1.00;;;;;;8262919;28;20194;-72
2023/06/08 19:35:36;;;;;;;7.97;6.70;;;18.70;1.00;;;;;;8257706;28;20196;-68
2023/06/08 19:39:37;;;;;;;7.40;6.70;;;18.50;1.00;;;;;;8256266;28;20267;-68
2023/06/08 19:43:38;;;;;;;8.37;7.50;;;18.20;1.00;;;;;;8257583;28;20187;-69
2023/06/08 19:47:42;;;;;;;7.57;6.77;;;18.10;1.00;;;;;;8274236;28;20211;-69
2023/06/08 19:51:50;;;;;;;8.10;7.33;;;17.90;1.00;;;;;;8270068;28;20259;-68
2023/06/08 19:55:51;;;;;;;8.17;7.47;;;17.70;1.00;;;;;;8266795;28;20183;-70
2023/06/08 19:59:59;;;;;;;8.13;7.27;;;17.50;1.00;;;;;;8256836;28;20192;-68
2023/06/08 20:04:02;;;;;;;8.60;7.90;;;17.40;1.00;;;;;;8270595;28;20277;-70
2023/06/08 20:08:04;;;;;;;8.77;8.03;;;17.20;1.00;;;;;;8259821;28;20277;-68
2023/06/08 20:12:06;;;;;;;8.90;7.40;;;17.10;1.00;;;;;;8257357;28;20192;-69
2023/06/08 20:16:07;;;;;;;8.90;8.17;;;16.90;1.00;;;;;;8270229;28;20931;-69
2023/06/08 20:20:08;;;;;;;9.30;8.50;;;16.80;1.00;;;;;;8256132;28;20197;-68
2023/06/08 20:24:10;;;;;;;9.20;8.40;;;16.70;1.00;;;;;;8260370;28;20201;-71
2023/06/08 20:28:11;;;;;;;8.70;7.90;;;16.50;1.00;;;;;;8285825;28;20309;-69
2023/06/08 20:32:12;;;;;;;8.37;7.67;;;16.30;1.00;;;;;;8260987;28;20203;-69
2023/06/08 20:36:13;;;;;;;9.60;8.80;;;16.20;1.00;;;;;;8258813;28;20187;-70
2023/06/08 20:40:14;;;;;;;9.40;8.60;;;16.00;1.00;;;;;;8260684;28;20197;-69
2023/06/08 20:44:15;;;;;;;9.27;8.37;;;15.90;19.60;;;;;;8266473;28;20276;-69
2023/06/08 20:48:16;;;;;;;8.83;8.03;;;15.70;36.80;;;;;;8282618;28;20220;-69
2023/06/08 20:52:17;;;;;;;10.13;9.23;;;15.60;48.20;;;;;;8268325;28;20253;-69
2023/06/08 20:56:18;;;;;;;9.33;8.47;;;15.50;66.10;;;;;;8257780;28;20201;-70
2023/06/08 21:00:22;;;;;;;10.30;9.40;;;15.40;90.10;;;;;;8271269;28;20295;-69